Time;durP1;ratioP1;P1;durP2;ratioP2;P2;SDS_P1;SDS_P2;PMS_P1;PMS_P2;Temp;Humidity;BMP_temperature;BMP_pressure;BME280_temperature;BME280_humidity;BME280_pressure;Samples;Min_cycle;Max_cycle;Signal;HPM_P1;HPM_P2
2023/08/12 00:01:42;;;;;;;8.15;6.40;;;;;;;;;;10435782;28;20908;-82
2023/08/12 00:06:45;;;;;;;7.90;5.70;;;;;;;;;;10433609;28;20407;-83
2023/08/12 00:11:48;;;;;;;7.47;6.47;;;;;;;;;;10437745;28;20420;-83
2023/08/12 00:16:51;;;;;;;7.30;5.85;;;;;;;;;;10437406;28;20421;-83
2023/08/12 00:21:53;;;;;;;6.67;5.87;;;;;;;;;;10433031;28;20470;-83
2023/08/12 00:26:56;;;;;;;7.13;6.28;;;;;;;;;;10433366;28;20957;-83
2023/08/12 00:31:59;;;;;;;6.75;5.88;;;;;;;;;;10435250;28;20423;-83
2023/08/12 00:37:01;;;;;;;7.22;6.43;;;;;;;;;;10433909;28;20448;-82
2023/08/12 00:42:05;;;;;;;6.90;6.20;;;;;;;;;;10433726;28;20423;-83
2023/08/12 00:47:08;;;;;;;8.23;6.40;;;;;;;;;;10435533;28;20489;-83
2023/08/12 00:52:10;;;;;;;6.83;5.90;;;;;;;;;;10432276;28;20422;-83
2023/08/12 00:57:14;;;;;;;7.03;6.10;;;;;;;;;;10432542;28;20407;-83
2023/08/12 01:02:17;;;;;;;7.03;6.32;;;;;;;;;;10433223;28;20436;-82
2023/08/12 01:07:19;;;;;;;6.97;6.10;;;;;;;;;;10431655;28;20404;-83
2023/08/12 01:12:28;;;;;;;7.80;5.50;;;;;;;;;;10433406;28;20417;-83
2023/08/12 01:17:33;;;;;;;6.90;5.45;;;;;;;;;;10432703;28;20417;-83
2023/08/12 01:22:39;;;;;;;7.60;5.63;;;;;;;;;;10430519;28;20408;-82
2023/08/12 01:27:43;;;;;;;7.25;5.25;;;;;;;;;;10432941;28;20431;-83
2023/08/12 01:32:54;;;;;;;7.00;5.05;;;;;;;;;;10432224;28;20478;-83
2023/08/12 01:37:58;;;;;;;6.40;5.27;;;;;;;;;;10429028;28;20459;-83
2023/08/12 01:43:03;;;;;;;6.00;5.40;;;;;;;;;;10434466;28;20416;-83
2023/08/12 01:48:07;;;;;;;6.40;5.80;;;;;;;;;;10428804;28;20413;-83
2023/08/12 01:53:09;;;;;;;8.43;5.35;;;;;;;;;;10430616;28;20493;-82
2023/08/12 01:58:13;;;;;;;5.77;5.27;;;;;;;;;;10432102;28;20423;-82
2023/08/12 02:03:15;;;;;;;6.53;5.90;;;;;;;;;;10428092;28;20421;-82
2023/08/12 02:08:17;;;;;;;6.15;5.55;;;;;;;;;;10430804;28;20469;-83
2023/08/12 02:13:21;;;;;;;6.60;5.90;;;;;;;;;;10431707;28;20509;-83
2023/08/12 02:18:24;;;;;;;7.15;6.00;;;;;;;;;;10428973;28;20822;-81
2023/08/12 02:23:26;;;;;;;6.13;5.53;;;;;;;;;;10430659;28;20751;-82
2023/08/12 02:28:30;;;;;;;5.80;5.20;;;;;;;;;;10430234;28;20908;-82
2023/08/12 02:33:32;;;;;;;5.90;5.40;;;;;;;;;;10408486;28;20453;-83
2023/08/12 02:38:34;;;;;;;6.20;5.30;;;;;;;;;;10407917;28;20468;-82
2023/08/12 02:43:38;;;;;;;6.15;4.97;;;;;;;;;;10429117;28;20784;-83
2023/08/12 02:48:40;;;;;;;8.17;5.13;;;;;;;;;;10429429;28;20467;-82
2023/08/12 02:53:43;;;;;;;8.32;5.32;;;;;;;;;;10426065;28;20455;-82
2023/08/12 02:58:47;;;;;;;7.20;5.20;;;;;;;;;;10432980;28;20887;-82
2023/08/12 03:03:49;;;;;;;8.05;6.03;;;;;;;;;;10426004;28;20421;-82
2023/08/12 03:08:51;;;;;;;6.72;5.93;;;;;;;;;;10437658;28;20762;-82
2023/08/12 03:13:55;;;;;;;8.37;6.10;;;;;;;;;;10437237;28;20450;-82
2023/08/12 03:18:57;;;;;;;6.55;5.88;;;;;;;;;;10436254;28;20884;-83
2023/08/12 03:24:01;;;;;;;6.82;5.80;;;;;;;;;;10437326;28;20778;-83
2023/08/12 03:29:05;;;;;;;7.47;5.87;;;;;;;;;;10440315;28;20404;-83
2023/08/12 03:34:07;;;;;;;6.37;5.50;;;;;;;;;;10433340;28;20483;-83
2023/08/12 03:39:10;;;;;;;7.55;6.35;;;;;;;;;;10436533;28;20404;-81
2023/08/12 03:44:13;;;;;;;8.10;6.50;;;;;;;;;;10435295;28;20413;-82
2023/08/12 03:49:16;;;;;;;7.55;6.63;;;;;;;;;;10437081;28;20951;-82
2023/08/12 03:54:18;;;;;;;8.17;7.30;;;;;;;;;;10432444;28;20427;-82
2023/08/12 03:59:22;;;;;;;8.00;6.63;;;;;;;;;;10439117;28;20947;-82
2023/08/12 04:04:24;;;;;;;8.27;6.63;;;;;;;;;;10433442;28;20459;-82
2023/08/12 04:09:27;;;;;;;8.07;6.60;;;;;;;;;;10435080;28;20413;-82
2023/08/12 04:14:30;;;;;;;8.25;7.15;;;;;;;;;;10435954;28;20446;-82
2023/08/12 04:19:33;;;;;;;7.88;6.68;;;;;;;;;;10434165;28;20402;-82
2023/08/12 04:24:35;;;;;;;8.85;7.65;;;;;;;;;;10433505;28;20412;-82
2023/08/12 04:29:39;;;;;;;8.47;7.50;;;;;;;;;;10439677;28;20445;-82
2023/08/12 04:34:41;;;;;;;8.60;7.30;;;;;;;;;;10432643;28;20995;-82
2023/08/12 04:39:44;;;;;;;8.63;7.68;;;;;;;;;;10432913;28;20463;-81
2023/08/12 04:44:47;;;;;;;12.43;8.77;;;;;;;;;;10433999;28;20417;-82
2023/08/12 04:49:49;;;;;;;10.70;9.02;;;;;;;;;;10432115;28;20416;-82
2023/08/12 04:54:54;;;;;;;10.57;8.40;;;;;;;;;;10433223;28;20483;-82
2023/08/12 04:59:57;;;;;;;10.25;8.40;;;;;;;;;;10435667;28;20436;-82
2023/08/12 05:05:00;;;;;;;12.90;9.15;;;;;;;;;;10430604;28;20408;-83
2023/08/12 05:10:03;;;;;;;10.87;9.77;;;;;;;;;;10432313;28;20428;-83
2023/08/12 05:15:08;;;;;;;12.80;9.88;;;;;;;;;;10433057;28;20463;-82
2023/08/12 05:20:11;;;;;;;11.43;9.57;;;;;;;;;;10432042;28;20436;-83
2023/08/12 05:25:13;;;;;;;14.07;9.50;;;;;;;;;;10430501;28;20889;-83
2023/08/12 05:30:17;;;;;;;12.68;10.27;;;;;;;;;;10436759;28;20417;-82
2023/08/12 05:35:19;;;;;;;12.17;9.50;;;;;;;;;;10430244;28;20960;-82
2023/08/12 05:40:21;;;;;;;11.35;9.13;;;;;;;;;;10430110;28;20409;-82
2023/08/12 05:45:25;;;;;;;10.70;8.90;;;;;;;;;;10433626;28;20461;-82
2023/08/12 05:50:27;;;;;;;8.85;7.93;;;;;;;;;;10430240;28;20456;-82
2023/08/12 05:55:30;;;;;;;8.30;7.32;;;;;;;;;;10429939;28;20419;-82
2023/08/12 06:00:33;;;;;;;7.53;6.73;;;;;;;;;;10432810;28;20977;-82
2023/08/12 06:05:36;;;;;;;8.73;5.90;;;;;;;;;;10428930;28;20408;-82
2023/08/12 06:10:38;;;;;;;6.45;5.85;;;;;;;;;;10429622;28;20405;-82
2023/08/12 06:15:42;;;;;;;7.68;5.75;;;;;;;;;;10430445;28;20926;-83
2023/08/12 06:20:44;;;;;;;7.35;5.75;;;;;;;;;;10429180;28;20408;-82
2023/08/12 06:25:46;;;;;;;6.03;5.10;;;;;;;;;;10428561;28;20413;-81
2023/08/12 06:30:50;;;;;;;6.00;5.40;;;;;;;;;;10431911;28;20473;-82
2023/08/12 06:35:52;;;;;;;5.55;5.05;;;;;;;;;;10428186;28;20969;-83
2023/08/12 06:40:55;;;;;;;6.63;5.17;;;;;;;;;;10428257;28;20419;-83
2023/08/12 06:45:59;;;;;;;5.37;4.87;;;;;;;;;;10429617;28;20454;-82
2023/08/12 06:51:06;;;;;;;5.45;4.95;;;;;;;;;;10427966;28;20409;-82
2023/08/12 06:56:09;;;;;;;7.43;5.20;;;;;;;;;;10428491;28;20419;-83
2023/08/12 07:01:12;;;;;;;5.18;4.50;;;;;;;;;;10430576;28;20415;-82
2023/08/12 07:06:14;;;;;;;5.28;4.70;;;;;;;;;;10427250;28;20818;-82
2023/08/12 07:11:17;;;;;;;5.10;4.60;;;;;;;;;;10427849;28;20434;-82
2023/08/12 07:16:21;;;;;;;6.63;4.50;;;;;;;;;;10430623;28;20484;-82
2023/08/12 07:21:23;;;;;;;7.20;5.23;;;;;;;;;;10428038;28;20404;-82
2023/08/12 07:26:25;;;;;;;5.13;4.55;;;;;;;;;;10426517;28;20765;-82
2023/08/12 07:31:29;;;;;;;5.90;4.63;;;;;;;;;;10429993;28;20480;-84
2023/08/12 07:36:32;;;;;;;5.32;4.20;;;;;;;;;;10429049;28;20910;-83
2023/08/12 07:41:35;;;;;;;4.50;4.10;;;;;;;;;;10426784;28;20686;-82
2023/08/12 07:46:39;;;;;;;4.87;4.30;;;;;;;;;;10430654;28;20471;-82
2023/08/12 07:51:41;;;;;;;4.90;4.00;;;;;;;;;;10427213;28;20409;-82
2023/08/12 07:56:43;;;;;;;4.97;4.18;;;;;;;;;;10435406;28;20976;-82
2023/08/12 08:01:47;;;;;;;5.63;4.20;;;;;;;;;;10435266;28;20995;-82
2023/08/12 08:06:49;;;;;;;4.70;3.85;;;;;;;;;;10433159;28;20795;-82
2023/08/12 08:11:52;;;;;;;4.00;3.70;;;;;;;;;;10434938;28;20434;-82
2023/08/12 08:16:55;;;;;;;5.17;3.63;;;;;;;;;;10438033;28;20423;-82
2023/08/12 08:21:58;;;;;;;4.03;3.63;;;;;;;;;;10432934;28;20440;-82
2023/08/12 08:27:00;;;;;;;4.03;3.70;;;;;;;;;;10433912;28;20755;-83
2023/08/12 08:32:04;;;;;;;3.93;3.53;;;;;;;;;;10435957;28;20408;-82
2023/08/12 08:37:06;;;;;;;4.50;4.10;;;;;;;;;;10431649;28;20417;-83
2023/08/12 08:42:11;;;;;;;4.43;4.03;;;;;;;;;;10439934;28;20437;-83
2023/08/12 08:47:17;;;;;;;4.95;4.43;;;;;;;;;;10433708;28;20440;-83
2023/08/12 08:52:20;;;;;;;5.30;3.60;;;;;;;;;;10433202;28;20427;-82
2023/08/12 08:57:22;;;;;;;3.88;3.47;;;;;;;;;;10431553;28;20483;-82
2023/08/12 09:02:27;;;;;;;4.03;3.33;;;;;;;;;;10433271;28;20421;-82
2023/08/12 09:07:31;;;;;;;4.85;3.70;;;;;;;;;;10432044;28;20462;-82
2023/08/12 09:12:33;;;;;;;6.18;3.85;;;;;;;;;;10432169;28;20449;-82
2023/08/12 09:17:37;;;;;;;4.20;3.80;;;;;;;;;;10435724;28;20450;-83
2023/08/12 09:22:39;;;;;;;4.93;3.60;;;;;;;;;;10430213;28;20405;-83
2023/08/12 09:27:42;;;;;;;3.83;3.35;;;;;;;;;;10431708;28;20485;-83
2023/08/12 09:33:00;;;;;;;4.35;3.65;;;;;;;;;;10431489;28;20407;-83
2023/08/12 09:38:04;;;;;;;4.40;3.40;;;;;;;;;;10431311;28;20426;-82
2023/08/12 09:43:06;;;;;;;5.18;3.30;;;;;;;;;;10434920;28;20770;-83
2023/08/12 09:48:10;;;;;;;4.30;3.10;;;;;;;;;;10430785;28;20405;-82
2023/08/12 09:53:13;;;;;;;3.58;3.17;;;;;;;;;;10431408;28;20420;-83
2023/08/12 09:58:19;;;;;;;3.30;3.00;;;;;;;;;;10430460;28;20493;-83
2023/08/12 10:03:23;;;;;;;4.47;3.17;;;;;;;;;;10430394;28;20480;-83
2023/08/12 10:08:27;;;;;;;3.80;3.30;;;;;;;;;;10428372;28;20792;-82
2023/08/12 10:13:29;;;;;;;3.58;3.10;;;;;;;;;;10434411;28;20409;-82
2023/08/12 10:18:34;;;;;;;4.23;3.13;;;;;;;;;;10429946;28;20834;-82
2023/08/12 10:23:37;;;;;;;4.25;3.13;;;;;;;;;;10427270;28;20398;-82
2023/08/12 10:28:40;;;;;;;3.47;3.10;;;;;;;;;;10431618;28;20413;-82
2023/08/12 10:33:44;;;;;;;3.30;2.87;;;;;;;;;;10430156;28;20412;-83
2023/08/12 10:38:47;;;;;;;4.35;3.30;;;;;;;;;;10426746;28;20753;-83
2023/08/12 10:43:56;;;;;;;3.67;3.25;;;;;;;;;;10430126;28;20475;-82
2023/08/12 10:49:06;;;;;;;4.68;3.17;;;;;;;;;;10407687;28;20437;-83
2023/08/12 10:54:15;;;;;;;3.30;3.00;;;;;;;;;;10407140;28;20467;-82
2023/08/12 10:59:48;;;;;;;3.50;2.83;;;;;;;;;;10426293;28;20428;-83
2023/08/12 11:04:53;;;;;;;3.83;3.20;;;;;;;;;;10428453;28;20953;-83
2023/08/12 11:10:00;;;;;;;3.87;3.13;;;;;;;;;;10427059;28;20766;-83
2023/08/12 11:15:05;;;;;;;3.63;3.33;;;;;;;;;;10432740;28;20416;-83
2023/08/12 11:20:11;;;;;;;3.53;3.00;;;;;;;;;;10426069;28;20490;-82
2023/08/12 11:25:14;;;;;;;4.03;3.13;;;;;;;;;;10406969;28;20414;-83
2023/08/12 11:30:18;;;;;;;5.45;3.25;;;;;;;;;;10429177;28;20895;-83
2023/08/12 11:35:23;;;;;;;4.32;3.10;;;;;;;;;;10433786;28;20474;-83
2023/08/12 11:40:27;;;;;;;3.92;3.53;;;;;;;;;;10414505;28;20436;-84
2023/08/12 11:45:30;;;;;;;3.80;3.50;;;;;;;;;;10437158;28;20409;-83
2023/08/12 11:50:34;;;;;;;3.40;3.10;;;;;;;;;;10436249;28;20438;-83
2023/08/12 11:55:36;;;;;;;4.22;3.70;;;;;;;;;;10432798;28;20409;-82
2023/08/12 12:00:38;;;;;;;3.88;3.20;;;;;;;;;;10436184;28;20413;-83
2023/08/12 12:05:42;;;;;;;3.70;3.30;;;;;;;;;;10435729;28;20470;-82
2023/08/12 12:10:44;;;;;;;3.40;3.07;;;;;;;;;;10415511;28;20409;-82
2023/08/12 12:15:47;;;;;;;3.47;3.17;;;;;;;;;;10435747;28;20451;-82
2023/08/12 12:20:57;;;;;;;3.90;3.43;;;;;;;;;;10412228;28;20807;-82
2023/08/12 12:26:01;;;;;;;3.85;3.55;;;;;;;;;;10428734;28;20456;-83
2023/08/12 12:31:03;;;;;;;5.82;3.47;;;;;;;;;;10437534;28;20430;-82
2023/08/12 12:36:07;;;;;;;4.30;3.13;;;;;;;;;;10432134;28;20487;-83
2023/08/12 12:41:10;;;;;;;4.60;3.38;;;;;;;;;;10433396;28;20420;-83
2023/08/12 12:46:12;;;;;;;4.30;3.47;;;;;;;;;;10436569;28;20418;-83
2023/08/12 12:51:16;;;;;;;6.03;3.70;;;;;;;;;;10433724;28;20743;-83
2023/08/12 12:56:19;;;;;;;3.60;3.17;;;;;;;;;;10430926;28;20491;-83
2023/08/12 13:01:21;;;;;;;3.50;3.20;;;;;;;;;;10432517;28;20467;-83
2023/08/12 13:06:25;;;;;;;4.00;3.70;;;;;;;;;;10433354;28;20462;-83
2023/08/12 13:11:27;;;;;;;4.10;3.70;;;;;;;;;;10433044;28;20469;-83
2023/08/12 13:16:30;;;;;;;4.77;3.77;;;;;;;;;;10433074;28;20506;-83
2023/08/12 13:21:33;;;;;;;3.90;3.60;;;;;;;;;;10434387;28;20412;-83
2023/08/12 13:26:36;;;;;;;5.93;3.70;;;;;;;;;;10429261;28;20428;-83
2023/08/12 13:31:39;;;;;;;4.23;3.50;;;;;;;;;;10435060;28;20439;-84
2023/08/12 13:36:42;;;;;;;4.22;3.83;;;;;;;;;;10429034;28;20455;-84
2023/08/12 13:41:45;;;;;;;3.70;3.40;;;;;;;;;;10431337;28;20447;-83
2023/08/12 13:46:47;;;;;;;4.83;3.50;;;;;;;;;;10435227;28;20404;-83
2023/08/12 13:51:55;;;;;;;3.40;3.20;;;;;;;;;;10427041;28;20401;-84
2023/08/12 13:56:58;;;;;;;3.90;3.58;;;;;;;;;;10428657;28;20513;-83
2023/08/12 14:02:00;;;;;;;4.55;3.47;;;;;;;;;;10461562;22;20468;-83
2023/08/12 14:07:04;;;;;;;4.13;3.20;;;;;;;;;;10431156;28;20821;-83
2023/08/12 14:12:07;;;;;;;3.50;3.30;;;;;;;;;;10427782;28;20405;-83
2023/08/12 14:17:13;;;;;;;3.63;3.33;;;;;;;;;;10428411;28;20489;-83
2023/08/12 14:22:17;;;;;;;3.70;3.40;;;;;;;;;;10429679;28;20396;-84
2023/08/12 14:27:19;;;;;;;3.60;3.30;;;;;;;;;;10427294;28;20415;-83
2023/08/12 14:32:21;;;;;;;3.50;3.20;;;;;;;;;;10427457;28;20413;-83
2023/08/12 14:37:25;;;;;;;7.45;3.35;;;;;;;;;;10429209;28;20497;-84
2023/08/12 14:42:27;;;;;;;3.92;3.33;;;;;;;;;;10427564;28;20469;-83
2023/08/12 14:47:30;;;;;;;4.63;3.17;;;;;;;;;;10427232;28;20966;-84
2023/08/12 14:52:34;;;;;;;4.28;3.58;;;;;;;;;;10429356;28;20770;-84
2023/08/12 14:57:36;;;;;;;3.72;3.42;;;;;;;;;;10426283;28;20438;-84
2023/08/12 15:02:38;;;;;;;3.80;3.50;;;;;;;;;;10432755;28;20438;-83
2023/08/12 15:07:42;;;;;;;4.00;3.40;;;;;;;;;;10434837;28;20475;-84
2023/08/12 15:12:44;;;;;;;4.00;3.60;;;;;;;;;;10435935;28;20415;-84
2023/08/12 15:17:46;;;;;;;3.90;3.40;;;;;;;;;;10437880;28;20481;-78
2023/08/12 15:22:50;;;;;;;3.75;3.45;;;;;;;;;;10431065;28;20413;-84
2023/08/12 15:27:52;;;;;;;3.83;3.42;;;;;;;;;;10432226;28;20408;-83
2023/08/12 15:32:55;;;;;;;3.70;3.40;;;;;;;;;;10437508;28;20415;-83
2023/08/12 15:37:58;;;;;;;3.50;3.20;;;;;;;;;;10432289;28;20540;-82
2023/08/12 15:43:01;;;;;;;3.45;3.10;;;;;;;;;;10436173;28;20500;-83
2023/08/12 15:48:03;;;;;;;3.88;3.47;;;;;;;;;;10422858;28;20455;-83
2023/08/12 15:53:07;;;;;;;3.67;3.38;;;;;;;;;;10432867;28;20418;-84
2023/08/12 15:58:10;;;;;;;3.72;3.33;;;;;;;;;;10433243;28;20504;-83
2023/08/12 16:03:12;;;;;;;3.63;3.33;;;;;;;;;;10432373;28;20822;-84
2023/08/12 16:08:16;;;;;;;3.90;3.60;;;;;;;;;;10420143;28;20457;-83
2023/08/12 16:13:19;;;;;;;4.10;3.70;;;;;;;;;;10420847;28;20501;-83
2023/08/12 16:18:21;;;;;;;3.97;3.50;;;;;;;;;;10425873;28;20515;-83
2023/08/12 16:23:25;;;;;;;3.88;3.20;;;;;;;;;;10425648;28;20497;-83
2023/08/12 16:28:27;;;;;;;5.57;3.60;;;;;;;;;;10423457;28;20514;-83
2023/08/12 16:33:30;;;;;;;3.92;3.60;;;;;;;;;;10426212;28;20443;-83
2023/08/12 16:38:33;;;;;;;4.60;3.60;;;;;;;;;;10422427;28;20451;-82
2023/08/12 16:43:35;;;;;;;3.80;3.50;;;;;;;;;;10417998;28;20501;-82
2023/08/12 16:48:38;;;;;;;3.90;3.50;;;;;;;;;;10420018;28;20405;-83
2023/08/12 16:53:42;;;;;;;4.15;3.65;;;;;;;;;;10422469;28;20440;-83
2023/08/12 16:58:44;;;;;;;4.15;3.75;;;;;;;;;;10419239;28;20484;-84
2023/08/12 17:03:46;;;;;;;4.07;3.58;;;;;;;;;;10423605;28;20450;-89
2023/08/12 17:08:50;;;;;;;3.45;3.00;;;;;;;;;;10425651;28;20414;-89
2023/08/12 17:13:52;;;;;;;3.15;2.85;;;;;;;;;;10422925;28;20418;-90
2023/08/12 17:18:54;;;;;;;3.65;3.35;;;;;;;;;;10420117;28;20517;-83
2023/08/12 17:23:58;;;;;;;5.70;3.30;;;;;;;;;;10424888;28;20522;-84
2023/08/12 17:29:01;;;;;;;3.13;2.88;;;;;;;;;;10427442;28;20406;-84
2023/08/12 17:34:03;;;;;;;3.58;3.10;;;;;;;;;;10424481;28;20461;-83
2023/08/12 17:39:07;;;;;;;3.67;3.10;;;;;;;;;;10412585;28;20460;-83
2023/08/12 17:44:09;;;;;;;3.80;2.97;;;;;;;;;;10411015;28;20480;-88
2023/08/12 17:49:11;;;;;;;3.30;3.00;;;;;;;;;;10410610;28;20437;-83
2023/08/12 17:54:15;;;;;;;4.15;3.30;;;;;;;;;;10402907;28;20452;-82
2023/08/12 17:59:17;;;;;;;5.87;3.30;;;;;;;;;;10399767;28;20464;-83
2023/08/12 18:04:20;;;;;;;3.67;3.30;;;;;;;;;;10411717;28;20485;-83
2023/08/12 18:09:24;;;;;;;4.32;3.22;;;;;;;;;;10423380;28;20979;-83
2023/08/12 18:14:26;;;;;;;3.30;2.93;;;;;;;;;;10419477;28;20451;-83
2023/08/12 18:19:29;;;;;;;4.60;3.20;;;;;;;;;;10418960;28;20457;-83
2023/08/12 18:24:32;;;;;;;4.38;3.47;;;;;;;;;;10419355;28;20600;-83
2023/08/12 18:29:34;;;;;;;3.65;3.35;;;;;;;;;;10417168;28;20987;-83
2023/08/12 18:34:37;;;;;;;4.20;3.43;;;;;;;;;;10408927;28;20444;-83
2023/08/12 18:39:40;;;;;;;4.90;3.40;;;;;;;;;;10397638;28;20449;-83
2023/08/12 18:44:43;;;;;;;4.80;3.90;;;;;;;;;;10392499;28;20445;-83
2023/08/12 18:49:45;;;;;;;3.80;3.50;;;;;;;;;;10405222;28;20983;-83
2023/08/12 18:54:49;;;;;;;4.30;3.40;;;;;;;;;;10417603;28;20812;-83
2023/08/12 18:59:51;;;;;;;4.53;3.40;;;;;;;;;;10404829;28;20457;-83
2023/08/12 19:04:53;;;;;;;5.00;3.80;;;;;;;;;;10409747;28;21048;-83
2023/08/12 19:09:57;;;;;;;3.93;3.43;;;;;;;;;;10407272;28;20505;-83
2023/08/12 19:14:59;;;;;;;4.47;3.40;;;;;;;;;;10409342;28;20484;-83
2023/08/12 19:20:03;;;;;;;4.70;3.58;;;;;;;;;;10412059;28;20510;-84
2023/08/12 19:25:08;;;;;;;3.40;3.10;;;;;;;;;;10413203;28;20486;-83
2023/08/12 19:30:11;;;;;;;4.38;3.35;;;;;;;;;;10408329;28;20449;-83
2023/08/12 19:35:13;;;;;;;4.82;3.30;;;;;;;;;;10413545;28;20443;-83
2023/08/12 19:40:18;;;;;;;6.47;5.22;;;;;;;;;;10409759;28;20451;-83
2023/08/12 19:45:20;;;;;;;11.07;5.10;;;;;;;;;;10403204;28;20519;-83
2023/08/12 19:50:22;;;;;;;5.45;4.10;;;;;;;;;;10409933;28;20488;-84
2023/08/12 19:55:26;;;;;;;7.07;4.18;;;;;;;;;;10407204;28;20441;-82
2023/08/12 20:00:29;;;;;;;5.00;4.10;;;;;;;;;;10411839;28;20506;-83
2023/08/12 20:05:31;;;;;;;4.03;3.47;;;;;;;;;;10404951;28;20444;-83
2023/08/12 20:10:35;;;;;;;3.83;3.37;;;;;;;;;;10408269;28;20451;-83
2023/08/12 20:15:37;;;;;;;4.18;3.67;;;;;;;;;;10408283;28;20492;-83
2023/08/12 20:20:40;;;;;;;4.03;3.63;;;;;;;;;;10400946;28;20956;-83
2023/08/12 20:25:44;;;;;;;3.97;3.50;;;;;;;;;;10408397;28;20477;-82
2023/08/12 20:30:47;;;;;;;5.57;2.90;;;;;;;;;;10401608;28;21005;-83
2023/08/12 20:35:49;;;;;;;4.10;3.20;;;;;;;;;;10405966;28;20417;-83
2023/08/12 20:40:53;;;;;;;3.60;3.30;;;;;;;;;;10407954;28;20483;-83
2023/08/12 20:45:55;;;;;;;3.80;3.30;;;;;;;;;;10409874;28;20452;-82
2023/08/12 20:50:58;;;;;;;3.45;3.03;;;;;;;;;;10412462;28;20466;-83
2023/08/12 20:56:02;;;;;;;5.87;3.10;;;;;;;;;;10406070;28;20891;-82
2023/08/12 21:01:04;;;;;;;5.35;3.10;;;;;;;;;;10405377;28;20551;-83
2023/08/12 21:06:09;;;;;;;3.95;3.00;;;;;;;;;;10393451;28;20503;-83
2023/08/12 21:11:13;;;;;;;3.97;2.78;;;;;;;;;;10395060;28;20503;-82
2023/08/12 21:16:15;;;;;;;3.37;3.07;;;;;;;;;;10400414;28;20445;-82
2023/08/12 21:21:17;;;;;;;3.90;3.08;;;;;;;;;;10389736;28;20441;-84
2023/08/12 21:26:21;;;;;;;4.25;3.00;;;;;;;;;;10397604;28;21004;-84
2023/08/12 21:31:23;;;;;;;3.50;3.20;;;;;;;;;;10401181;28;20439;-84
2023/08/12 21:36:26;;;;;;;4.67;3.30;;;;;;;;;;10402962;28;20412;-84
2023/08/12 21:41:30;;;;;;;4.93;3.72;;;;;;;;;;10412805;28;20447;-85
2023/08/12 21:46:32;;;;;;;6.23;4.87;;;;;;;;;;10403703;28;20429;-84
2023/08/12 21:51:34;;;;;;;6.10;5.10;;;;;;;;;;10410267;28;20497;-84
2023/08/12 21:56:38;;;;;;;6.43;5.55;;;;;;;;;;10403824;28;21061;-84
2023/08/12 22:01:41;;;;;;;7.47;6.77;;;;;;;;;;10413150;28;20537;-84
2023/08/12 22:06:44;;;;;;;9.15;8.25;;;;;;;;;;10413334;28;20408;-84
2023/08/12 22:11:47;;;;;;;9.77;8.60;;;;;;;;;;10413301;28;20886;-86
2023/08/12 22:16:50;;;;;;;11.47;9.90;;;;;;;;;;10414607;28;20461;-83
2023/08/12 22:21:52;;;;;;;11.40;10.20;;;;;;;;;;10414839;28;20525;-83
2023/08/12 22:26:56;;;;;;;10.85;9.45;;;;;;;;;;10415956;28;20462;-83
2023/08/12 22:31:58;;;;;;;10.07;8.90;;;;;;;;;;10419976;28;20452;-83
2023/08/12 22:37:01;;;;;;;14.93;11.90;;;;;;;;;;10424167;28;20481;-83
2023/08/12 22:42:04;;;;;;;14.73;12.23;;;;;;;;;;10421985;28;20462;-82
2023/08/12 22:47:07;;;;;;;13.35;11.95;;;;;;;;;;10413853;28;20443;-82
2023/08/12 22:52:09;;;;;;;13.95;12.50;;;;;;;;;;10416093;28;20452;-83
2023/08/12 22:57:13;;;;;;;13.70;12.30;;;;;;;;;;10414090;28;20409;-82
2023/08/12 23:02:15;;;;;;;14.40;12.90;;;;;;;;;;10415667;28;20775;-83
2023/08/12 23:07:17;;;;;;;15.77;13.57;;;;;;;;;;10413437;28;20485;-83
2023/08/12 23:12:21;;;;;;;15.40;13.25;;;;;;;;;;10415273;28;20485;-83
2023/08/12 23:17:23;;;;;;;17.03;13.57;;;;;;;;;;10414976;28;20501;-83
2023/08/12 23:22:26;;;;;;;15.75;14.07;;;;;;;;;;10418507;28;20479;-82
2023/08/12 23:27:29;;;;;;;15.25;13.57;;;;;;;;;;10423509;28;20414;-82
2023/08/12 23:32:32;;;;;;;15.23;13.63;;;;;;;;;;10424792;28;20455;-83
2023/08/12 23:37:34;;;;;;;14.85;13.38;;;;;;;;;;10418538;28;20435;-83
2023/08/12 23:42:38;;;;;;;14.60;12.90;;;;;;;;;;10424699;28;20457;-83
2023/08/12 23:47:41;;;;;;;14.00;12.60;;;;;;;;;;10420233;28;20427;-83
2023/08/12 23:52:43;;;;;;;14.30;12.90;;;;;;;;;;10422764;28;20445;-82
2023/08/12 23:57:47;;;;;;;15.63;13.05;;;;;;;;;;10428055;28;20467;-82
